sensor_id;sensor_type;location;lat;lon;timestamp;pressure;altitude;pressure_sealevel;temperature;humidity
77003;BME280;65939;50.060;14.288;2023-04-25T00:01:59;96473.50;;;7.94;78.34
77003;BME280;65939;50.060;14.288;2023-04-25T00:04:00;96483.22;;;7.92;78.41
77003;BME280;65939;50.060;14.288;2023-04-25T00:06:01;96480.78;;;7.90;78.38
77003;BME280;65939;50.060;14.288;2023-04-25T00:08:03;96483.53;;;7.89;78.18
77003;BME280;65939;50.060;14.288;2023-04-25T00:10:04;96474.94;;;7.88;78.51
77003;BME280;65939;50.060;14.288;2023-04-25T00:12:05;96479.31;;;7.88;78.05
77003;BME280;65939;50.060;14.288;2023-04-25T00:14:06;96476.91;;;7.86;77.97
77003;BME280;65939;50.060;14.288;2023-04-25T00:16:07;96475.41;;;7.84;78.57
77003;BME280;65939;50.060;14.288;2023-04-25T00:18:08;96471.50;;;7.80;79.08
77003;BME280;65939;50.060;14.288;2023-04-25T00:20:09;96475.06;;;7.79;79.24
77003;BME280;65939;50.060;14.288;2023-04-25T00:22:10;96473.63;;;7.76;78.29
77003;BME280;65939;50.060;14.288;2023-04-25T00:24:12;96471.97;;;7.75;78.71
77003;BME280;65939;50.060;14.288;2023-04-25T00:26:13;96471.31;;;7.73;79.14
77003;BME280;65939;50.060;14.288;2023-04-25T00:28:14;96475.03;;;7.71;78.45
77003;BME280;65939;50.060;14.288;2023-04-25T00:30:15;96476.34;;;7.66;78.09
77003;BME280;65939;50.060;14.288;2023-04-25T00:32:16;96472.44;;;7.62;78.93
77003;BME280;65939;50.060;14.288;2023-04-25T00:34:17;96472.75;;;7.59;79.48
77003;BME280;65939;50.060;14.288;2023-04-25T00:36:17;96472.06;;;7.57;79.59
77003;BME280;65939;50.060;14.288;2023-04-25T00:38:18;96467.22;;;7.54;79.65
77003;BME280;65939;50.060;14.288;2023-04-25T00:40:19;96466.72;;;7.51;79.49
77003;BME280;65939;50.060;14.288;2023-04-25T00:42:19;96473.03;;;7.48;79.71
77003;BME280;65939;50.060;14.288;2023-04-25T00:44:22;96466.53;;;7.44;80.34
77003;BME280;65939;50.060;14.288;2023-04-25T00:46:23;96473.00;;;7.40;80.26
77003;BME280;65939;50.060;14.288;2023-04-25T00:48:23;96464.53;;;7.38;79.60
77003;BME280;65939;50.060;14.288;2023-04-25T00:50:24;96470.22;;;7.33;80.63
77003;BME280;65939;50.060;14.288;2023-04-25T00:52:25;96462.56;;;7.32;80.37
77003;BME280;65939;50.060;14.288;2023-04-25T00:54:26;96460.13;;;7.30;80.77
77003;BME280;65939;50.060;14.288;2023-04-25T00:56:27;96461.25;;;7.28;81.05
77003;BME280;65939;50.060;14.288;2023-04-25T00:58:27;96457.97;;;7.26;80.96
77003;BME280;65939;50.060;14.288;2023-04-25T01:00:28;96449.56;;;7.24;80.39
77003;BME280;65939;50.060;14.288;2023-04-25T01:02:30;96446.28;;;7.22;80.67
77003;BME280;65939;50.060;14.288;2023-04-25T01:04:31;96452.63;;;7.19;81.46
77003;BME280;65939;50.060;14.288;2023-04-25T01:06:32;96449.34;;;7.17;80.76
77003;BME280;65939;50.060;14.288;2023-04-25T01:08:33;96443.34;;;7.16;80.84
77003;BME280;65939;50.060;14.288;2023-04-25T01:10:34;96450.47;;;7.14;81.63
77003;BME280;65939;50.060;14.288;2023-04-25T01:12:35;96449.81;;;7.12;81.22
77003;BME280;65939;50.060;14.288;2023-04-25T01:14:36;96445.59;;;7.11;81.39
77003;BME280;65939;50.060;14.288;2023-04-25T01:16:37;96445.75;;;7.10;81.25
77003;BME280;65939;50.060;14.288;2023-04-25T01:18:41;96448.34;;;7.10;81.09
77003;BME280;65939;50.060;14.288;2023-04-25T01:20:43;96441.66;;;7.07;81.76
77003;BME280;65939;50.060;14.288;2023-04-25T01:22:45;96434.19;;;7.04;82.07
77003;BME280;65939;50.060;14.288;2023-04-25T01:24:45;96441.97;;;7.04;81.86
77003;BME280;65939;50.060;14.288;2023-04-25T01:26:47;96440.34;;;7.03;82.33
77003;BME280;65939;50.060;14.288;2023-04-25T01:28:51;96436.97;;;7.03;81.88
77003;BME280;65939;50.060;14.288;2023-04-25T01:30:53;96443.25;;;7.00;82.60
77003;BME280;65939;50.060;14.288;2023-04-25T01:32:55;96444.25;;;6.99;82.55
77003;BME280;65939;50.060;14.288;2023-04-25T01:34:56;96446.81;;;6.99;82.34
77003;BME280;65939;50.060;14.288;2023-04-25T01:36:59;96442.75;;;6.96;82.83
77003;BME280;65939;50.060;14.288;2023-04-25T01:39:02;96443.56;;;6.97;82.54
77003;BME280;65939;50.060;14.288;2023-04-25T01:41:03;96445.50;;;6.95;83.27
77003;BME280;65939;50.060;14.288;2023-04-25T01:43:04;96452.50;;;6.94;83.23
77003;BME280;65939;50.060;14.288;2023-04-25T01:45:05;96445.81;;;6.92;82.89
77003;BME280;65939;50.060;14.288;2023-04-25T01:47:06;96445.97;;;6.90;82.77
77003;BME280;65939;50.060;14.288;2023-04-25T01:49:07;96446.94;;;6.89;83.30
77003;BME280;65939;50.060;14.288;2023-04-25T01:51:08;96446.28;;;6.87;83.15
77003;BME280;65939;50.060;14.288;2023-04-25T01:53:09;96449.03;;;6.86;83.03
77003;BME280;65939;50.060;14.288;2023-04-25T01:55:13;96444.13;;;6.83;83.53
77003;BME280;65939;50.060;14.288;2023-04-25T01:57:14;96439.28;;;6.80;82.75
77003;BME280;65939;50.060;14.288;2023-04-25T01:59:14;96437.63;;;6.79;83.34
77003;BME280;65939;50.060;14.288;2023-04-25T02:01:15;96443.13;;;6.76;83.58
77003;BME280;65939;50.060;14.288;2023-04-25T02:03:16;96437.28;;;6.74;82.85
77003;BME280;65939;50.060;14.288;2023-04-25T02:05:17;96439.19;;;6.71;83.82
77003;BME280;65939;50.060;14.288;2023-04-25T02:07:17;96433.50;;;6.68;83.77
77003;BME280;65939;50.060;14.288;2023-04-25T02:09:18;96432.84;;;6.66;83.88
77003;BME280;65939;50.060;14.288;2023-04-25T02:11:19;96431.53;;;6.62;83.63
77003;BME280;65939;50.060;14.288;2023-04-25T02:13:19;96430.06;;;6.59;83.87
77003;BME280;65939;50.060;14.288;2023-04-25T02:15:20;96421.59;;;6.57;83.28
77003;BME280;65939;50.060;14.288;2023-04-25T02:17:21;96418.38;;;6.55;83.54
77003;BME280;65939;50.060;14.288;2023-04-25T02:19:22;96422.88;;;6.53;84.22
77003;BME280;65939;50.060;14.288;2023-04-25T02:21:23;96418.00;;;6.50;84.18
77003;BME280;65939;50.060;14.288;2023-04-25T02:23:23;96417.34;;;6.48;84.09
77003;BME280;65939;50.060;14.288;2023-04-25T02:25:24;96419.25;;;6.46;83.51
77003;BME280;65939;50.060;14.288;2023-04-25T02:27:25;96418.75;;;6.42;83.64
77003;BME280;65939;50.060;14.288;2023-04-25T02:29:25;96407.06;;;6.38;83.83
77003;BME280;65939;50.060;14.288;2023-04-25T02:31:26;96414.16;;;6.36;83.53
77003;BME280;65939;50.060;14.288;2023-04-25T02:33:27;96423.22;;;6.32;84.13
77003;BME280;65939;50.060;14.288;2023-04-25T02:35:27;96425.28;;;6.29;84.47
77003;BME280;65939;50.060;14.288;2023-04-25T02:37:28;96426.25;;;6.28;83.74
77003;BME280;65939;50.060;14.288;2023-04-25T02:39:29;96427.38;;;6.25;83.52
77003;BME280;65939;50.060;14.288;2023-04-25T02:41:29;96424.13;;;6.23;83.99
77003;BME280;65939;50.060;14.288;2023-04-25T02:43:30;96420.84;;;6.21;83.89
77003;BME280;65939;50.060;14.288;2023-04-25T02:45:31;96417.59;;;6.19;84.13
77003;BME280;65939;50.060;14.288;2023-04-25T02:47:31;96418.72;;;6.16;83.84
77003;BME280;65939;50.060;14.288;2023-04-25T02:49:32;96421.44;;;6.15;84.07
77003;BME280;65939;50.060;14.288;2023-04-25T02:51:32;96420.81;;;6.13;83.48
77003;BME280;65939;50.060;14.288;2023-04-25T02:53:33;96426.13;;;6.11;83.72
77003;BME280;65939;50.060;14.288;2023-04-25T02:55:34;96417.53;;;6.11;84.17
77003;BME280;65939;50.060;14.288;2023-04-25T02:57:35;96415.09;;;6.09;84.54
77003;BME280;65939;50.060;14.288;2023-04-25T02:59:35;96407.31;;;6.09;84.39
77003;BME280;65939;50.060;14.288;2023-04-25T03:01:36;96413.16;;;6.11;85.15
77003;BME280;65939;50.060;14.288;2023-04-25T03:03:37;96403.47;;;6.13;85.19
77003;BME280;65939;50.060;14.288;2023-04-25T03:05:37;96406.41;;;6.18;85.73
77003;BME280;65939;50.060;14.288;2023-04-25T03:07:38;96402.56;;;6.22;85.66
77003;BME280;65939;50.060;14.288;2023-04-25T03:09:39;96403.91;;;6.27;85.08
77003;BME280;65939;50.060;14.288;2023-04-25T03:11:40;96394.84;;;6.31;85.18
77003;BME280;65939;50.060;14.288;2023-04-25T03:13:41;96395.19;;;6.36;85.36
77003;BME280;65939;50.060;14.288;2023-04-25T03:15:41;96391.34;;;6.40;86.02
77003;BME280;65939;50.060;14.288;2023-04-25T03:17:42;96396.91;;;6.45;85.80
77003;BME280;65939;50.060;14.288;2023-04-25T03:19:43;96399.03;;;6.50;85.71
77003;BME280;65939;50.060;14.288;2023-04-25T03:21:44;96402.13;;;6.53;86.12
77003;BME280;65939;50.060;14.288;2023-04-25T03:23:44;96400.22;;;6.55;85.89
77003;BME280;65939;50.060;14.288;2023-04-25T03:25:45;96392.94;;;6.59;85.84
77003;BME280;65939;50.060;14.288;2023-04-25T03:27:46;96401.22;;;6.62;86.10
77003;BME280;65939;50.060;14.288;2023-04-25T03:29:47;96399.13;;;6.66;85.95
77003;BME280;65939;50.060;14.288;2023-04-25T03:31:47;96392.00;;;6.68;85.48
77003;BME280;65939;50.060;14.288;2023-04-25T03:33:48;96394.28;;;6.71;85.59
77003;BME280;65939;50.060;14.288;2023-04-25T03:35:49;96386.22;;;6.74;85.11
77003;BME280;65939;50.060;14.288;2023-04-25T03:37:50;96392.72;;;6.78;85.44
77003;BME280;65939;50.060;14.288;2023-04-25T03:39:51;96388.19;;;6.80;84.96
77003;BME280;65939;50.060;14.288;2023-04-25T03:41:51;96389.66;;;6.83;85.72
77003;BME280;65939;50.060;14.288;2023-04-25T03:43:52;96394.03;;;6.82;84.78
77003;BME280;65939;50.060;14.288;2023-04-25T03:45:53;96396.47;;;6.84;84.80
77003;BME280;65939;50.060;14.288;2023-04-25T03:47:54;96389.34;;;6.86;84.40
77003;BME280;65939;50.060;14.288;2023-04-25T03:49:54;96393.41;;;6.88;85.02
77003;BME280;65939;50.060;14.288;2023-04-25T03:51:55;96388.06;;;6.90;85.29
77003;BME280;65939;50.060;14.288;2023-04-25T03:53:56;96393.75;;;6.93;85.01
77003;BME280;65939;50.060;14.288;2023-04-25T03:55:56;96388.44;;;6.95;84.95
77003;BME280;65939;50.060;14.288;2023-04-25T03:57:59;96385.66;;;6.96;84.17
77003;BME280;65939;50.060;14.288;2023-04-25T04:00:00;96385.66;;;6.96;84.27
77003;BME280;65939;50.060;14.288;2023-04-25T04:02:01;96389.75;;;6.99;84.55
77003;BME280;65939;50.060;14.288;2023-04-25T04:04:02;96392.16;;;7.01;85.03
77003;BME280;65939;50.060;14.288;2023-04-25T04:06:06;96388.63;;;7.02;83.92
77003;BME280;65939;50.060;14.288;2023-04-25T04:08:07;96386.66;;;7.04;84.90
77003;BME280;65939;50.060;14.288;2023-04-25T04:10:09;96393.34;;;7.06;85.15
77003;BME280;65939;50.060;14.288;2023-04-25T04:12:10;96394.00;;;7.08;85.31
77003;BME280;65939;50.060;14.288;2023-04-25T04:14:11;96396.28;;;7.11;84.17
77003;BME280;65939;50.060;14.288;2023-04-25T04:16:12;96397.91;;;7.12;84.20
77003;BME280;65939;50.060;14.288;2023-04-25T04:18:12;96395.97;;;7.14;84.51
77003;BME280;65939;50.060;14.288;2023-04-25T04:20:13;96395.66;;;7.17;84.30
77003;BME280;65939;50.060;14.288;2023-04-25T04:22:13;96389.47;;;7.18;84.06
77003;BME280;65939;50.060;14.288;2023-04-25T04:24:14;96390.97;;;7.21;84.08
77003;BME280;65939;50.060;14.288;2023-04-25T04:26:17;96394.88;;;7.25;84.27
77003;BME280;65939;50.060;14.288;2023-04-25T04:28:18;96389.38;;;7.28;84.10
77003;BME280;65939;50.060;14.288;2023-04-25T04:30:19;96399.31;;;7.33;84.10
77003;BME280;65939;50.060;14.288;2023-04-25T04:32:20;96395.25;;;7.38;84.57
77003;BME280;65939;50.060;14.288;2023-04-25T04:34:21;96393.81;;;7.44;83.39
77003;BME280;65939;50.060;14.288;2023-04-25T04:36:21;96395.13;;;7.48;84.00
77003;BME280;65939;50.060;14.288;2023-04-25T04:38:23;96402.44;;;7.53;83.46
77003;BME280;65939;50.060;14.288;2023-04-25T04:40:24;96397.72;;;7.56;83.38
77003;BME280;65939;50.060;14.288;2023-04-25T04:42:25;96397.41;;;7.59;83.28
77003;BME280;65939;50.060;14.288;2023-04-25T04:44:26;96399.03;;;7.60;83.42
77003;BME280;65939;50.060;14.288;2023-04-25T04:46:27;96397.91;;;7.63;83.55
77003;BME280;65939;50.060;14.288;2023-04-25T04:48:28;96389.94;;;7.64;83.71
77003;BME280;65939;50.060;14.288;2023-04-25T04:50:29;96393.38;;;7.65;83.34
77003;BME280;65939;50.060;14.288;2023-04-25T04:52:30;96389.00;;;7.65;82.85
77003;BME280;65939;50.060;14.288;2023-04-25T04:54:30;96389.97;;;7.73;83.35
77003;BME280;65939;50.060;14.288;2023-04-25T04:56:32;96396.16;;;7.80;83.79
77003;BME280;65939;50.060;14.288;2023-04-25T04:58:33;96394.53;;;7.87;82.81
77003;BME280;65939;50.060;14.288;2023-04-25T05:00:34;96395.22;;;7.97;82.84
77003;BME280;65939;50.060;14.288;2023-04-25T05:02:35;96395.84;;;8.07;82.82
77003;BME280;65939;50.060;14.288;2023-04-25T05:04:35;96400.06;;;8.16;82.71
77003;BME280;65939;50.060;14.288;2023-04-25T05:06:36;96402.53;;;8.26;82.66
77003;BME280;65939;50.060;14.288;2023-04-25T05:08:37;96396.50;;;8.34;82.07
77003;BME280;65939;50.060;14.288;2023-04-25T05:10:37;96397.50;;;8.41;81.40
77003;BME280;65939;50.060;14.288;2023-04-25T05:12:38;96400.41;;;8.46;81.62
77003;BME280;65939;50.060;14.288;2023-04-25T05:14:39;96392.94;;;8.51;82.30
77003;BME280;65939;50.060;14.288;2023-04-25T05:16:39;96397.50;;;8.57;81.79
77003;BME280;65939;50.060;14.288;2023-04-25T05:18:42;96396.00;;;8.63;81.61
77003;BME280;65939;50.060;14.288;2023-04-25T05:20:42;96403.47;;;8.66;81.40
77003;BME280;65939;50.060;14.288;2023-04-25T05:22:43;96400.69;;;8.68;81.23
77003;BME280;65939;50.060;14.288;2023-04-25T05:24:44;96396.34;;;8.68;80.65
77003;BME280;65939;50.060;14.288;2023-04-25T05:26:44;96401.53;;;8.68;81.40
77003;BME280;65939;50.060;14.288;2023-04-25T05:28:45;96402.97;;;8.71;80.46
77003;BME280;65939;50.060;14.288;2023-04-25T05:30:46;96399.06;;;8.75;81.07
77003;BME280;65939;50.060;14.288;2023-04-25T05:32:46;96404.25;;;8.75;79.88
77003;BME280;65939;50.060;14.288;2023-04-25T05:34:47;96406.56;;;8.70;80.31
77003;BME280;65939;50.060;14.288;2023-04-25T05:36:48;96403.97;;;8.70;80.04
77003;BME280;65939;50.060;14.288;2023-04-25T05:38:49;96395.84;;;8.73;80.52
77003;BME280;65939;50.060;14.288;2023-04-25T05:40:49;96400.38;;;8.79;79.98
77003;BME280;65939;50.060;14.288;2023-04-25T05:42:50;96392.88;;;8.84;80.00
77003;BME280;65939;50.060;14.288;2023-04-25T05:44:51;96401.34;;;8.86;80.19
77003;BME280;65939;50.060;14.288;2023-04-25T05:46:52;96400.16;;;8.88;79.47
77003;BME280;65939;50.060;14.288;2023-04-25T05:48:52;96399.84;;;8.92;79.45
77003;BME280;65939;50.060;14.288;2023-04-25T05:50:53;96406.00;;;8.99;80.09
77003;BME280;65939;50.060;14.288;2023-04-25T05:52:53;96405.16;;;9.06;79.88
77003;BME280;65939;50.060;14.288;2023-04-25T05:54:54;96407.44;;;9.09;79.00
77003;BME280;65939;50.060;14.288;2023-04-25T05:56:56;96402.69;;;9.13;78.85
77003;BME280;65939;50.060;14.288;2023-04-25T05:58:57;96399.94;;;9.15;78.82
77003;BME280;65939;50.060;14.288;2023-04-25T06:00:58;96393.09;;;9.14;79.19
77003;BME280;65939;50.060;14.288;2023-04-25T06:02:59;96393.44;;;9.10;79.01
77003;BME280;65939;50.060;14.288;2023-04-25T06:05:00;96399.97;;;9.06;79.48
77003;BME280;65939;50.060;14.288;2023-04-25T06:07:03;96396.03;;;9.10;78.90
77003;BME280;65939;50.060;14.288;2023-04-25T06:09:04;96395.88;;;9.12;79.42
77003;BME280;65939;50.060;14.288;2023-04-25T06:11:05;96395.69;;;9.14;79.00
77003;BME280;65939;50.060;14.288;2023-04-25T06:13:06;96399.59;;;9.18;79.50
77003;BME280;65939;50.060;14.288;2023-04-25T06:15:07;96393.41;;;9.19;78.85
77003;BME280;65939;50.060;14.288;2023-04-25T06:17:07;96400.91;;;9.22;79.76
77003;BME280;65939;50.060;14.288;2023-04-25T06:19:08;96394.19;;;9.27;78.90
77003;BME280;65939;50.060;14.288;2023-04-25T06:21:09;96393.50;;;9.33;79.38
77003;BME280;65939;50.060;14.288;2023-04-25T06:23:10;96398.53;;;9.43;79.01
77003;BME280;65939;50.060;14.288;2023-04-25T06:25:10;96392.28;;;9.52;78.65
77003;BME280;65939;50.060;14.288;2023-04-25T06:27:11;96391.25;;;9.62;78.59
77003;BME280;65939;50.060;14.288;2023-04-25T06:29:12;96388.66;;;9.62;77.65
77003;BME280;65939;50.060;14.288;2023-04-25T06:31:12;96392.06;;;9.62;78.18
77003;BME280;65939;50.060;14.288;2023-04-25T06:33:13;96385.84;;;9.71;78.46
77003;BME280;65939;50.060;14.288;2023-04-25T06:35:13;96387.38;;;9.80;77.92
77003;BME280;65939;50.060;14.288;2023-04-25T06:37:14;96392.38;;;9.90;78.30
77003;BME280;65939;50.060;14.288;2023-04-25T06:39:15;96394.78;;;10.00;78.10
77003;BME280;65939;50.060;14.288;2023-04-25T06:41:16;96396.03;;;10.04;78.01
77003;BME280;65939;50.060;14.288;2023-04-25T06:43:16;96402.19;;;10.11;77.72
77003;BME280;65939;50.060;14.288;2023-04-25T06:45:17;96391.56;;;10.13;77.35
77003;BME280;65939;50.060;14.288;2023-04-25T06:47:18;96385.31;;;10.22;77.94
77003;BME280;65939;50.060;14.288;2023-04-25T06:49:18;96382.84;;;10.28;78.11
77003;BME280;65939;50.060;14.288;2023-04-25T06:51:19;96394.81;;;10.38;77.83
77003;BME280;65939;50.060;14.288;2023-04-25T06:53:20;96378.91;;;10.47;78.20
77003;BME280;65939;50.060;14.288;2023-04-25T06:55:20;96383.25;;;10.55;77.29
77003;BME280;65939;50.060;14.288;2023-04-25T06:57:21;96378.22;;;10.53;76.82
77003;BME280;65939;50.060;14.288;2023-04-25T06:59:22;96377.22;;;10.54;76.49
77003;BME280;65939;50.060;14.288;2023-04-25T07:01:23;96381.72;;;10.61;76.32
77003;BME280;65939;50.060;14.288;2023-04-25T07:03:23;96389.03;;;10.65;75.89
77003;BME280;65939;50.060;14.288;2023-04-25T07:05:24;96385.31;;;10.60;75.44
77003;BME280;65939;50.060;14.288;2023-04-25T07:07:25;96385.16;;;10.61;75.60
77003;BME280;65939;50.060;14.288;2023-04-25T07:09:26;96383.59;;;10.67;75.45
77003;BME280;65939;50.060;14.288;2023-04-25T07:11:26;96378.31;;;10.75;76.15
77003;BME280;65939;50.060;14.288;2023-04-25T07:13:27;96385.34;;;10.89;75.50
77003;BME280;65939;50.060;14.288;2023-04-25T07:15:28;96374.91;;;11.04;75.57
77003;BME280;65939;50.060;14.288;2023-04-25T07:17:28;96376.59;;;11.12;75.27
77003;BME280;65939;50.060;14.288;2023-04-25T07:19:29;96378.50;;;11.18;73.76
77003;BME280;65939;50.060;14.288;2023-04-25T07:21:30;96374.09;;;11.18;74.39
77003;BME280;65939;50.060;14.288;2023-04-25T07:23:31;96375.22;;;11.31;74.56
77003;BME280;65939;50.060;14.288;2023-04-25T07:25:32;96377.19;;;11.43;75.34
77003;BME280;65939;50.060;14.288;2023-04-25T07:27:33;96378.44;;;11.47;73.45
77003;BME280;65939;50.060;14.288;2023-04-25T07:29:33;96368.63;;;11.49;74.06
77003;BME280;65939;50.060;14.288;2023-04-25T07:31:37;96374.31;;;11.53;73.15
77003;BME280;65939;50.060;14.288;2023-04-25T07:33:38;96376.56;;;11.56;72.79
77003;BME280;65939;50.060;14.288;2023-04-25T07:35:38;96376.00;;;11.61;73.30
77003;BME280;65939;50.060;14.288;2023-04-25T07:37:40;96376.88;;;11.68;73.16
77003;BME280;65939;50.060;14.288;2023-04-25T07:39:41;96373.97;;;11.78;73.96
77003;BME280;65939;50.060;14.288;2023-04-25T07:41:42;96375.47;;;11.87;72.84
77003;BME280;65939;50.060;14.288;2023-04-25T07:43:42;96379.78;;;11.94;72.83
77003;BME280;65939;50.060;14.288;2023-04-25T07:45:44;96377.28;;;12.08;72.59
77003;BME280;65939;50.060;14.288;2023-04-25T07:47:44;96379.22;;;12.20;72.02
77003;BME280;65939;50.060;14.288;2023-04-25T07:49:45;96375.03;;;12.26;71.66
77003;BME280;65939;50.060;14.288;2023-04-25T07:51:46;96366.06;;;12.35;71.91
77003;BME280;65939;50.060;14.288;2023-04-25T07:53:47;96373.38;;;12.46;71.63
77003;BME280;65939;50.060;14.288;2023-04-25T07:55:48;96372.69;;;12.59;70.82
77003;BME280;65939;50.060;14.288;2023-04-25T07:57:48;96376.38;;;12.72;71.67
77003;BME280;65939;50.060;14.288;2023-04-25T07:59:49;96371.63;;;12.82;71.25
77003;BME280;65939;50.060;14.288;2023-04-25T08:01:50;96367.59;;;12.86;70.46
77003;BME280;65939;50.060;14.288;2023-04-25T08:03:51;96371.50;;;12.97;71.03
77003;BME280;65939;50.060;14.288;2023-04-25T08:05:52;96366.91;;;13.05;69.54
77003;BME280;65939;50.060;14.288;2023-04-25T08:07:52;96370.34;;;13.06;69.09
77003;BME280;65939;50.060;14.288;2023-04-25T08:09:54;96371.72;;;13.02;67.34
77003;BME280;65939;50.060;14.288;2023-04-25T08:11:55;96376.91;;;12.88;67.91
77003;BME280;65939;50.060;14.288;2023-04-25T08:13:55;96373.28;;;12.89;68.11
77003;BME280;65939;50.060;14.288;2023-04-25T08:15:56;96374.66;;;12.85;67.79
77003;BME280;65939;50.060;14.288;2023-04-25T08:17:57;96367.41;;;12.87;68.55
77003;BME280;65939;50.060;14.288;2023-04-25T08:19:57;96363.44;;;12.98;68.50
77003;BME280;65939;50.060;14.288;2023-04-25T08:21:58;96371.75;;;13.08;68.55
77003;BME280;65939;50.060;14.288;2023-04-25T08:23:59;96381.47;;;13.14;67.70
77003;BME280;65939;50.060;14.288;2023-04-25T08:25:59;96371.25;;;13.26;67.83
77003;BME280;65939;50.060;14.288;2023-04-25T08:28:00;96371.91;;;13.28;66.35
77003;BME280;65939;50.060;14.288;2023-04-25T08:30:03;96375.53;;;13.27;66.63
77003;BME280;65939;50.060;14.288;2023-04-25T08:32:05;96385.53;;;13.17;66.51
77003;BME280;65939;50.060;14.288;2023-04-25T08:34:06;96376.56;;;13.05;66.50
77003;BME280;65939;50.060;14.288;2023-04-25T08:36:06;96388.06;;;13.04;67.59
77003;BME280;65939;50.060;14.288;2023-04-25T08:38:07;96383.84;;;13.03;66.35
77003;BME280;65939;50.060;14.288;2023-04-25T08:40:12;96382.19;;;13.02;66.80
77003;BME280;65939;50.060;14.288;2023-04-25T08:42:15;96389.84;;;12.97;65.65
77003;BME280;65939;50.060;14.288;2023-04-25T08:44:16;96382.38;;;12.93;66.92
77003;BME280;65939;50.060;14.288;2023-04-25T08:46:19;96384.19;;;12.93;67.04
77003;BME280;65939;50.060;14.288;2023-04-25T08:48:21;96383.00;;;12.96;66.94
77003;BME280;65939;50.060;14.288;2023-04-25T08:50:22;96381.97;;;12.97;66.74
77003;BME280;65939;50.060;14.288;2023-04-25T08:52:23;96379.81;;;13.07;67.70
77003;BME280;65939;50.060;14.288;2023-04-25T08:54:28;96383.72;;;13.17;66.74
77003;BME280;65939;50.060;14.288;2023-04-25T08:56:28;96385.19;;;13.27;66.94
77003;BME280;65939;50.060;14.288;2023-04-25T08:58:30;96380.59;;;13.35;67.11
77003;BME280;65939;50.060;14.288;2023-04-25T09:00:31;96384.03;;;13.36;65.15
77003;BME280;65939;50.060;14.288;2023-04-25T09:02:32;96383.63;;;13.39;66.21
77003;BME280;65939;50.060;14.288;2023-04-25T09:04:33;96384.47;;;13.46;66.00
77003;BME280;65939;50.060;14.288;2023-04-25T09:06:34;96386.31;;;13.52;65.54
77003;BME280;65939;50.060;14.288;2023-04-25T09:08:36;96387.13;;;13.53;65.05
77003;BME280;65939;50.060;14.288;2023-04-25T09:10:37;96389.75;;;13.53;65.72
77003;BME280;65939;50.060;14.288;2023-04-25T09:12:39;96384.91;;;13.56;64.93
77003;BME280;65939;50.060;14.288;2023-04-25T09:14:41;96382.47;;;13.55;65.24
77003;BME280;65939;50.060;14.288;2023-04-25T09:18:55;96386.06;;;13.40;65.42
77003;BME280;65939;50.060;14.288;2023-04-25T09:21:05;96386.47;;;13.44;66.30
77003;BME280;65939;50.060;14.288;2023-04-25T09:23:06;96392.50;;;13.38;66.36
77003;BME280;65939;50.060;14.288;2023-04-25T09:25:11;96390.31;;;13.41;65.57
77003;BME280;65939;50.060;14.288;2023-04-25T09:27:18;96393.78;;;13.49;66.46
77003;BME280;65939;50.060;14.288;2023-04-25T09:29:29;96395.75;;;13.47;65.28
77003;BME280;65939;50.060;14.288;2023-04-25T09:31:33;96398.19;;;13.41;64.93
77003;BME280;65939;50.060;14.288;2023-04-25T09:33:34;96397.19;;;13.49;65.32
77003;BME280;65939;50.060;14.288;2023-04-25T09:35:47;96440.50;;;13.38;65.77
77003;BME280;65939;50.060;14.288;2023-04-25T09:37:53;96421.94;;;12.49;64.94
77003;BME280;65939;50.060;14.288;2023-04-25T09:39:57;96422.25;;;11.60;65.82
77003;BME280;65939;50.060;14.288;2023-04-25T09:41:59;96447.38;;;10.72;68.20
77003;BME280;65939;50.060;14.288;2023-04-25T09:44:00;96453.28;;;9.97;69.80
77003;BME280;65939;50.060;14.288;2023-04-25T09:46:01;96448.66;;;9.45;71.37
77003;BME280;65939;50.060;14.288;2023-04-25T09:48:05;96442.94;;;9.02;73.95
77003;BME280;65939;50.060;14.288;2023-04-25T09:50:17;96443.50;;;8.57;74.83
77003;BME280;65939;50.060;14.288;2023-04-25T09:52:23;96456.31;;;8.26;75.77
77003;BME280;65939;50.060;14.288;2023-04-25T09:54:25;96446.88;;;8.08;76.75
77003;BME280;65939;50.060;14.288;2023-04-25T09:56:33;96449.78;;;8.05;77.99
77003;BME280;65939;50.060;14.288;2023-04-25T09:58:38;96457.59;;;7.97;78.71
77003;BME280;65939;50.060;14.288;2023-04-25T10:00:40;96458.72;;;7.95;79.97
77003;BME280;65939;50.060;14.288;2023-04-25T10:02:42;96462.13;;;7.95;80.28
77003;BME280;65939;50.060;14.288;2023-04-25T10:04:52;96455.13;;;7.96;81.20
77003;BME280;65939;50.060;14.288;2023-04-25T10:06:56;96459.69;;;8.02;82.18
77003;BME280;65939;50.060;14.288;2023-04-25T10:08:58;96477.09;;;8.09;81.82
77003;BME280;65939;50.060;14.288;2023-04-25T10:11:01;96463.63;;;8.22;82.18
77003;BME280;65939;50.060;14.288;2023-04-25T10:13:04;96471.09;;;8.25;81.42
77003;BME280;65939;50.060;14.288;2023-04-25T10:15:06;96469.78;;;8.21;81.80
77003;BME280;65939;50.060;14.288;2023-04-25T10:17:10;96465.56;;;8.20;82.41
77003;BME280;65939;50.060;14.288;2023-04-25T10:19:15;96472.56;;;8.20;82.74
77003;BME280;65939;50.060;14.288;2023-04-25T10:21:17;96477.44;;;8.23;81.95
77003;BME280;65939;50.060;14.288;2023-04-25T10:23:19;96474.19;;;8.29;81.40
77003;BME280;65939;50.060;14.288;2023-04-25T10:25:23;96474.34;;;8.35;81.16
77003;BME280;65939;50.060;14.288;2023-04-25T10:27:27;96479.22;;;8.30;80.83
77003;BME280;65939;50.060;14.288;2023-04-25T10:29:28;96481.34;;;8.27;81.95
77003;BME280;65939;50.060;14.288;2023-04-25T10:31:30;96485.06;;;8.32;81.75
77003;BME280;65939;50.060;14.288;2023-04-25T10:33:39;96481.19;;;8.36;80.16
77003;BME280;65939;50.060;14.288;2023-04-25T10:35:41;96489.63;;;8.30;79.16
77003;BME280;65939;50.060;14.288;2023-04-25T10:38:09;96502.16;;;8.27;80.18
77003;BME280;65939;50.060;14.288;2023-04-25T10:40:10;96511.56;;;8.28;79.40
77003;BME280;65939;50.060;14.288;2023-04-25T10:42:11;96490.59;;;8.21;79.26
77003;BME280;65939;50.060;14.288;2023-04-25T10:44:13;96492.56;;;8.19;80.31